sensor_id;sensor_type;location;lat;lon;timestamp;temperature;humidity
26707;DHT22;14319;49.422;10.934;2023-12-04T00:00:23;-3.60;74.50
26707;DHT22;14319;49.422;10.934;2023-12-04T00:02:23;-3.60;75.00
26707;DHT22;14319;49.422;10.934;2023-12-04T00:04:24;-3.60;74.70
26707;DHT22;14319;49.422;10.934;2023-12-04T00:06:24;-3.60;74.30
26707;DHT22;14319;49.422;10.934;2023-12-04T00:08:25;-3.60;74.80
26707;DHT22;14319;49.422;10.934;2023-12-04T00:10:25;-3.60;74.90
26707;DHT22;14319;49.422;10.934;2023-12-04T00:12:26;-3.60;74.40
26707;DHT22;14319;49.422;10.934;2023-12-04T00:14:27;-3.60;74.40
26707;DHT22;14319;49.422;10.934;2023-12-04T00:16:27;-3.60;74.50
26707;DHT22;14319;49.422;10.934;2023-12-04T00:18:28;-3.60;74.70
26707;DHT22;14319;49.422;10.934;2023-12-04T00:20:28;-3.40;74.80
26707;DHT22;14319;49.422;10.934;2023-12-04T00:22:29;-3.60;74.90
26707;DHT22;14319;49.422;10.934;2023-12-04T00:24:29;-3.60;74.80
26707;DHT22;14319;49.422;10.934;2023-12-04T00:26:30;-3.60;75.00
26707;DHT22;14319;49.422;10.934;2023-12-04T00:28:31;-3.40;75.10
26707;DHT22;14319;49.422;10.934;2023-12-04T00:30:32;-3.60;75.00
26707;DHT22;14319;49.422;10.934;2023-12-04T00:32:32;-3.60;75.10
26707;DHT22;14319;49.422;10.934;2023-12-04T00:34:33;-3.60;75.30
26707;DHT22;14319;49.422;10.934;2023-12-04T00:36:33;-3.60;75.10
26707;DHT22;14319;49.422;10.934;2023-12-04T00:38:34;-3.60;75.20
26707;DHT22;14319;49.422;10.934;2023-12-04T00:40:34;-3.60;74.60
26707;DHT22;14319;49.422;10.934;2023-12-04T00:42:35;-3.60;74.80
26707;DHT22;14319;49.422;10.934;2023-12-04T00:44:35;-3.60;74.60
26707;DHT22;14319;49.422;10.934;2023-12-04T00:46:36;-3.60;74.70
26707;DHT22;14319;49.422;10.934;2023-12-04T00:48:37;-3.60;75.20
26707;DHT22;14319;49.422;10.934;2023-12-04T00:50:37;-3.60;75.60
26707;DHT22;14319;49.422;10.934;2023-12-04T00:52:38;-3.60;74.90
26707;DHT22;14319;49.422;10.934;2023-12-04T00:54:39;-3.60;75.00
26707;DHT22;14319;49.422;10.934;2023-12-04T00:56:41;-3.60;74.10
26707;DHT22;14319;49.422;10.934;2023-12-04T00:58:42;-3.70;74.20
26707;DHT22;14319;49.422;10.934;2023-12-04T01:00:42;-3.70;74.60
26707;DHT22;14319;49.422;10.934;2023-12-04T01:02:43;-3.70;75.40
26707;DHT22;14319;49.422;10.934;2023-12-04T01:04:43;-3.70;75.40
26707;DHT22;14319;49.422;10.934;2023-12-04T01:06:44;-3.70;74.40
26707;DHT22;14319;49.422;10.934;2023-12-04T01:08:44;-3.70;74.50
26707;DHT22;14319;49.422;10.934;2023-12-04T01:10:45;-3.70;74.70
26707;DHT22;14319;49.422;10.934;2023-12-04T01:12:46;-3.70;74.90
26707;DHT22;14319;49.422;10.934;2023-12-04T01:14:46;-3.70;74.80
26707;DHT22;14319;49.422;10.934;2023-12-04T01:16:47;-3.70;75.10
26707;DHT22;14319;49.422;10.934;2023-12-04T01:18:47;-3.70;74.90
26707;DHT22;14319;49.422;10.934;2023-12-04T01:20:48;-3.70;75.90
26707;DHT22;14319;49.422;10.934;2023-12-04T01:22:49;-3.70;75.30
26707;DHT22;14319;49.422;10.934;2023-12-04T01:24:49;-3.70;74.50
26707;DHT22;14319;49.422;10.934;2023-12-04T01:26:50;-3.70;74.80
26707;DHT22;14319;49.422;10.934;2023-12-04T01:28:51;-3.70;74.90
26707;DHT22;14319;49.422;10.934;2023-12-04T01:30:51;-3.80;75.20
26707;DHT22;14319;49.422;10.934;2023-12-04T01:32:52;-3.80;75.20
26707;DHT22;14319;49.422;10.934;2023-12-04T01:34:52;-3.70;75.50
26707;DHT22;14319;49.422;10.934;2023-12-04T01:36:53;-3.70;75.70
26707;DHT22;14319;49.422;10.934;2023-12-04T01:38:54;-3.70;74.90
26707;DHT22;14319;49.422;10.934;2023-12-04T01:40:54;-3.70;75.30
26707;DHT22;14319;49.422;10.934;2023-12-04T01:42:55;-3.60;75.30
26707;DHT22;14319;49.422;10.934;2023-12-04T01:44:55;-3.60;74.90
26707;DHT22;14319;49.422;10.934;2023-12-04T01:46:56;-3.70;75.30
26707;DHT22;14319;49.422;10.934;2023-12-04T01:48:56;-3.60;75.20
26707;DHT22;14319;49.422;10.934;2023-12-04T01:50:58;-3.60;74.80
26707;DHT22;14319;49.422;10.934;2023-12-04T01:53:01;-3.60;74.30
26707;DHT22;14319;49.422;10.934;2023-12-04T01:55:03;-3.70;74.70
26707;DHT22;14319;49.422;10.934;2023-12-04T01:57:05;-3.70;74.70
26707;DHT22;14319;49.422;10.934;2023-12-04T01:59:06;-3.70;74.50
26707;DHT22;14319;49.422;10.934;2023-12-04T02:01:07;-3.80;74.70
26707;DHT22;14319;49.422;10.934;2023-12-04T02:03:08;-3.80;74.60
26707;DHT22;14319;49.422;10.934;2023-12-04T02:05:11;-3.80;74.60
26707;DHT22;14319;49.422;10.934;2023-12-04T02:07:11;-3.80;74.60
26707;DHT22;14319;49.422;10.934;2023-12-04T02:09:12;-3.80;74.80
26707;DHT22;14319;49.422;10.934;2023-12-04T02:11:14;-3.90;75.10
26707;DHT22;14319;49.422;10.934;2023-12-04T02:13:15;-4.00;75.40
26707;DHT22;14319;49.422;10.934;2023-12-04T02:15:15;-4.10;75.10
26707;DHT22;14319;49.422;10.934;2023-12-04T02:17:16;-4.30;75.60
26707;DHT22;14319;49.422;10.934;2023-12-04T02:19:17;-4.30;76.80
26707;DHT22;14319;49.422;10.934;2023-12-04T02:21:18;-4.30;77.30
26707;DHT22;14319;49.422;10.934;2023-12-04T02:23:18;-4.40;77.00
26707;DHT22;14319;49.422;10.934;2023-12-04T02:25:19;-4.50;76.90
26707;DHT22;14319;49.422;10.934;2023-12-04T02:27:26;-4.60;77.50
26707;DHT22;14319;49.422;10.934;2023-12-04T02:29:34;-4.70;77.00
26707;DHT22;14319;49.422;10.934;2023-12-04T02:31:39;-4.70;77.50
26707;DHT22;14319;49.422;10.934;2023-12-04T02:33:41;-4.70;78.00
26707;DHT22;14319;49.422;10.934;2023-12-04T02:35:42;-4.80;77.90
26707;DHT22;14319;49.422;10.934;2023-12-04T02:37:43;-4.90;78.30
26707;DHT22;14319;49.422;10.934;2023-12-04T02:39:44;-5.10;78.60
26707;DHT22;14319;49.422;10.934;2023-12-04T02:41:45;-4.90;79.20
26707;DHT22;14319;49.422;10.934;2023-12-04T02:43:45;-4.80;79.00
26707;DHT22;14319;49.422;10.934;2023-12-04T02:45:46;-4.60;79.50
26707;DHT22;14319;49.422;10.934;2023-12-04T02:47:46;-4.60;78.20
26707;DHT22;14319;49.422;10.934;2023-12-04T02:49:47;-4.80;77.40
26707;DHT22;14319;49.422;10.934;2023-12-04T02:51:47;-4.80;78.30
26707;DHT22;14319;49.422;10.934;2023-12-04T02:53:48;-5.00;78.30
26707;DHT22;14319;49.422;10.934;2023-12-04T02:55:49;-4.90;79.70
26707;DHT22;14319;49.422;10.934;2023-12-04T02:57:49;-4.90;79.40
26707;DHT22;14319;49.422;10.934;2023-12-04T02:59:50;-4.80;78.70
26707;DHT22;14319;49.422;10.934;2023-12-04T03:01:50;-4.80;78.40
26707;DHT22;14319;49.422;10.934;2023-12-04T03:03:51;-4.70;78.50
26707;DHT22;14319;49.422;10.934;2023-12-04T03:05:51;-4.70;78.80
26707;DHT22;14319;49.422;10.934;2023-12-04T03:07:52;-4.70;77.90
26707;DHT22;14319;49.422;10.934;2023-12-04T03:09:53;-4.80;78.30
26707;DHT22;14319;49.422;10.934;2023-12-04T03:11:53;-4.90;78.80
26707;DHT22;14319;49.422;10.934;2023-12-04T03:13:54;-4.90;78.70
26707;DHT22;14319;49.422;10.934;2023-12-04T03:15:54;-4.70;79.50
26707;DHT22;14319;49.422;10.934;2023-12-04T03:17:55;-4.80;78.20
26707;DHT22;14319;49.422;10.934;2023-12-04T03:19:56;-4.80;79.00
26707;DHT22;14319;49.422;10.934;2023-12-04T03:21:56;-4.70;78.90
26707;DHT22;14319;49.422;10.934;2023-12-04T03:23:57;-4.50;79.20
26707;DHT22;14319;49.422;10.934;2023-12-04T03:25:57;-4.30;78.40
26707;DHT22;14319;49.422;10.934;2023-12-04T03:27:58;-4.20;77.40
26707;DHT22;14319;49.422;10.934;2023-12-04T03:29:58;-4.20;76.90
26707;DHT22;14319;49.422;10.934;2023-12-04T03:31:59;-4.40;76.30
26707;DHT22;14319;49.422;10.934;2023-12-04T03:34:00;-4.50;77.20
26707;DHT22;14319;49.422;10.934;2023-12-04T03:36:00;-4.60;77.30
26707;DHT22;14319;49.422;10.934;2023-12-04T03:38:01;-4.80;77.70
26707;DHT22;14319;49.422;10.934;2023-12-04T03:40:01;-4.70;78.40
26707;DHT22;14319;49.422;10.934;2023-12-04T03:42:02;-4.80;78.50
26707;DHT22;14319;49.422;10.934;2023-12-04T03:44:03;-4.60;78.90
26707;DHT22;14319;49.422;10.934;2023-12-04T03:46:04;-4.30;78.50
26707;DHT22;14319;49.422;10.934;2023-12-04T03:48:04;-4.20;77.50
26707;DHT22;14319;49.422;10.934;2023-12-04T03:50:05;-4.30;76.50
26707;DHT22;14319;49.422;10.934;2023-12-04T03:52:06;-4.10;77.20
26707;DHT22;14319;49.422;10.934;2023-12-04T03:54:07;-4.00;76.90
26707;DHT22;14319;49.422;10.934;2023-12-04T03:56:08;-4.10;75.40
26707;DHT22;14319;49.422;10.934;2023-12-04T03:58:08;-4.10;77.00
26707;DHT22;14319;49.422;10.934;2023-12-04T04:00:09;-4.20;77.10
26707;DHT22;14319;49.422;10.934;2023-12-04T04:02:13;-4.10;76.70
26707;DHT22;14319;49.422;10.934;2023-12-04T04:04:14;-4.30;76.70
26707;DHT22;14319;49.422;10.934;2023-12-04T04:06:14;-4.20;77.50
26707;DHT22;14319;49.422;10.934;2023-12-04T04:08:15;-4.30;76.70
26707;DHT22;14319;49.422;10.934;2023-12-04T04:10:16;-4.30;76.70
26707;DHT22;14319;49.422;10.934;2023-12-04T04:12:16;-4.40;77.50
26707;DHT22;14319;49.422;10.934;2023-12-04T04:14:17;-4.40;77.30
26707;DHT22;14319;49.422;10.934;2023-12-04T04:16:17;-4.40;77.40
26707;DHT22;14319;49.422;10.934;2023-12-04T04:18:18;-4.30;77.50
26707;DHT22;14319;49.422;10.934;2023-12-04T04:20:19;-4.40;76.90
26707;DHT22;14319;49.422;10.934;2023-12-04T04:22:20;-4.30;78.00
26707;DHT22;14319;49.422;10.934;2023-12-04T04:24:21;-4.20;78.00
26707;DHT22;14319;49.422;10.934;2023-12-04T04:26:22;-4.20;76.90
26707;DHT22;14319;49.422;10.934;2023-12-04T04:28:22;-4.30;77.50
26707;DHT22;14319;49.422;10.934;2023-12-04T04:30:23;-4.20;78.00
26707;DHT22;14319;49.422;10.934;2023-12-04T04:32:24;-4.10;77.50
26707;DHT22;14319;49.422;10.934;2023-12-04T04:34:25;-4.00;76.70
26707;DHT22;14319;49.422;10.934;2023-12-04T04:36:25;-4.10;77.40
26707;DHT22;14319;49.422;10.934;2023-12-04T04:38:26;-3.90;77.00
26707;DHT22;14319;49.422;10.934;2023-12-04T04:40:26;-3.80;76.30
26707;DHT22;14319;49.422;10.934;2023-12-04T04:42:27;-3.70;75.80
26707;DHT22;14319;49.422;10.934;2023-12-04T04:44:27;-3.70;76.00
26707;DHT22;14319;49.422;10.934;2023-12-04T04:46:28;-3.70;75.70
26707;DHT22;14319;49.422;10.934;2023-12-04T04:48:29;-3.60;75.40
26707;DHT22;14319;49.422;10.934;2023-12-04T04:50:30;-3.70;75.50
26707;DHT22;14319;49.422;10.934;2023-12-04T04:52:30;-3.90;75.70
26707;DHT22;14319;49.422;10.934;2023-12-04T04:54:31;-3.80;76.40
26707;DHT22;14319;49.422;10.934;2023-12-04T04:56:35;-3.70;76.00
26707;DHT22;14319;49.422;10.934;2023-12-04T04:58:36;-3.70;75.90
26707;DHT22;14319;49.422;10.934;2023-12-04T05:00:36;-3.70;76.10
26707;DHT22;14319;49.422;10.934;2023-12-04T05:02:37;-3.60;75.20
26707;DHT22;14319;49.422;10.934;2023-12-04T05:04:37;-3.60;74.50
26707;DHT22;14319;49.422;10.934;2023-12-04T05:06:38;-3.50;74.60
26707;DHT22;14319;49.422;10.934;2023-12-04T05:08:38;-3.60;74.70
26707;DHT22;14319;49.422;10.934;2023-12-04T05:10:39;-3.60;74.90
26707;DHT22;14319;49.422;10.934;2023-12-04T05:12:40;-3.60;74.70
26707;DHT22;14319;49.422;10.934;2023-12-04T05:14:40;-3.60;75.20
26707;DHT22;14319;49.422;10.934;2023-12-04T05:16:41;-3.60;75.10
26707;DHT22;14319;49.422;10.934;2023-12-04T05:18:41;-3.60;74.90
26707;DHT22;14319;49.422;10.934;2023-12-04T05:20:42;-3.70;75.20
26707;DHT22;14319;49.422;10.934;2023-12-04T05:22:42;-3.60;75.60
26707;DHT22;14319;49.422;10.934;2023-12-04T05:24:43;-3.60;75.20
26707;DHT22;14319;49.422;10.934;2023-12-04T05:26:43;-3.60;74.70
26707;DHT22;14319;49.422;10.934;2023-12-04T05:28:44;-3.70;75.70
26707;DHT22;14319;49.422;10.934;2023-12-04T05:30:45;-3.60;75.40
26707;DHT22;14319;49.422;10.934;2023-12-04T05:32:45;-3.60;74.70
26707;DHT22;14319;49.422;10.934;2023-12-04T05:34:46;-3.60;74.80
26707;DHT22;14319;49.422;10.934;2023-12-04T05:36:46;-3.60;75.20
26707;DHT22;14319;49.422;10.934;2023-12-04T05:38:47;-3.60;75.30
26707;DHT22;14319;49.422;10.934;2023-12-04T05:40:47;-3.50;75.40
26707;DHT22;14319;49.422;10.934;2023-12-04T05:42:49;-3.50;74.60
26707;DHT22;14319;49.422;10.934;2023-12-04T05:44:49;-3.50;74.60
26707;DHT22;14319;49.422;10.934;2023-12-04T05:46:50;-3.50;75.00
26707;DHT22;14319;49.422;10.934;2023-12-04T05:48:50;-3.70;76.30
26707;DHT22;14319;49.422;10.934;2023-12-04T05:50:51;-3.60;75.90
26707;DHT22;14319;49.422;10.934;2023-12-04T05:52:52;-3.50;75.60
26707;DHT22;14319;49.422;10.934;2023-12-04T05:54:52;-3.50;75.60
26707;DHT22;14319;49.422;10.934;2023-12-04T05:56:53;-3.50;75.30
26707;DHT22;14319;49.422;10.934;2023-12-04T05:58:53;-3.50;75.50
26707;DHT22;14319;49.422;10.934;2023-12-04T06:00:54;-3.50;74.90
26707;DHT22;14319;49.422;10.934;2023-12-04T06:02:55;-3.50;75.10
26707;DHT22;14319;49.422;10.934;2023-12-04T06:04:55;-3.50;75.80
26707;DHT22;14319;49.422;10.934;2023-12-04T06:06:56;-3.50;75.60
26707;DHT22;14319;49.422;10.934;2023-12-04T06:08:56;-3.40;75.90
26707;DHT22;14319;49.422;10.934;2023-12-04T06:10:57;-3.50;75.70
26707;DHT22;14319;49.422;10.934;2023-12-04T06:12:58;-3.50;76.00
26707;DHT22;14319;49.422;10.934;2023-12-04T06:14:58;-3.40;75.90
26707;DHT22;14319;49.422;10.934;2023-12-04T06:16:59;-3.40;76.20
26707;DHT22;14319;49.422;10.934;2023-12-04T06:19:00;-3.40;75.70
26707;DHT22;14319;49.422;10.934;2023-12-04T06:21:00;-3.40;75.10
26707;DHT22;14319;49.422;10.934;2023-12-04T06:23:01;-3.40;75.50
26707;DHT22;14319;49.422;10.934;2023-12-04T06:25:02;-3.30;75.80
26707;DHT22;14319;49.422;10.934;2023-12-04T06:27:03;-3.40;76.50
26707;DHT22;14319;49.422;10.934;2023-12-04T06:29:05;-3.40;75.50
26707;DHT22;14319;49.422;10.934;2023-12-04T06:31:06;-3.40;75.30
26707;DHT22;14319;49.422;10.934;2023-12-04T06:33:07;-3.30;75.10
26707;DHT22;14319;49.422;10.934;2023-12-04T06:35:09;-3.40;75.10
26707;DHT22;14319;49.422;10.934;2023-12-04T06:37:10;-3.40;75.20
26707;DHT22;14319;49.422;10.934;2023-12-04T06:39:12;-3.40;75.90
26707;DHT22;14319;49.422;10.934;2023-12-04T06:41:13;-3.40;76.00
26707;DHT22;14319;49.422;10.934;2023-12-04T06:43:14;-3.30;75.80
26707;DHT22;14319;49.422;10.934;2023-12-04T06:45:16;-3.40;75.30
26707;DHT22;14319;49.422;10.934;2023-12-04T06:47:19;-3.40;75.50
26707;DHT22;14319;49.422;10.934;2023-12-04T06:49:23;-3.40;75.00
26707;DHT22;14319;49.422;10.934;2023-12-04T06:51:25;-3.50;76.50
26707;DHT22;14319;49.422;10.934;2023-12-04T06:53:25;-3.40;76.50
26707;DHT22;14319;49.422;10.934;2023-12-04T06:55:26;-3.40;76.10
26707;DHT22;14319;49.422;10.934;2023-12-04T06:57:26;-3.50;75.90
26707;DHT22;14319;49.422;10.934;2023-12-04T06:59:27;-3.40;76.20
26707;DHT22;14319;49.422;10.934;2023-12-04T07:01:28;-3.30;76.20
26707;DHT22;14319;49.422;10.934;2023-12-04T07:03:28;-3.30;76.00
26707;DHT22;14319;49.422;10.934;2023-12-04T07:05:29;-3.30;75.60
26707;DHT22;14319;49.422;10.934;2023-12-04T07:07:30;-3.30;75.80
26707;DHT22;14319;49.422;10.934;2023-12-04T07:09:33;-3.30;75.40
26707;DHT22;14319;49.422;10.934;2023-12-04T07:11:34;-3.30;75.70
26707;DHT22;14319;49.422;10.934;2023-12-04T07:13:35;-3.40;76.20
26707;DHT22;14319;49.422;10.934;2023-12-04T07:15:35;-3.40;76.00
26707;DHT22;14319;49.422;10.934;2023-12-04T07:17:36;-3.40;76.40
26707;DHT22;14319;49.422;10.934;2023-12-04T07:19:37;-3.30;76.40
26707;DHT22;14319;49.422;10.934;2023-12-04T07:21:37;-3.30;76.10
26707;DHT22;14319;49.422;10.934;2023-12-04T07:23:39;-3.30;76.10
26707;DHT22;14319;49.422;10.934;2023-12-04T07:25:39;-3.30;76.00
26707;DHT22;14319;49.422;10.934;2023-12-04T07:27:40;-3.30;76.00
26707;DHT22;14319;49.422;10.934;2023-12-04T07:29:40;-3.30;75.80
26707;DHT22;14319;49.422;10.934;2023-12-04T07:31:41;-3.40;76.80
26707;DHT22;14319;49.422;10.934;2023-12-04T07:33:41;-3.40;77.30
26707;DHT22;14319;49.422;10.934;2023-12-04T07:35:42;-3.50;77.10
26707;DHT22;14319;49.422;10.934;2023-12-04T07:37:43;-3.50;77.50
26707;DHT22;14319;49.422;10.934;2023-12-04T07:39:44;-3.40;77.10
26707;DHT22;14319;49.422;10.934;2023-12-04T07:41:46;-3.30;77.10
26707;DHT22;14319;49.422;10.934;2023-12-04T07:43:47;-3.30;77.00
26707;DHT22;14319;49.422;10.934;2023-12-04T07:45:47;-3.30;77.00
26707;DHT22;14319;49.422;10.934;2023-12-04T07:47:48;-3.20;76.70
26707;DHT22;14319;49.422;10.934;2023-12-04T07:49:49;-3.10;77.00
26707;DHT22;14319;49.422;10.934;2023-12-04T07:51:49;-3.10;76.60
26707;DHT22;14319;49.422;10.934;2023-12-04T07:53:50;-3.00;76.40
26707;DHT22;14319;49.422;10.934;2023-12-04T07:55:50;-3.00;76.20
26707;DHT22;14319;49.422;10.934;2023-12-04T07:57:51;-3.00;76.20
26707;DHT22;14319;49.422;10.934;2023-12-04T07:59:52;-2.90;75.90
26707;DHT22;14319;49.422;10.934;2023-12-04T08:01:53;-2.90;75.80
26707;DHT22;14319;49.422;10.934;2023-12-04T08:03:54;-2.80;75.80
26707;DHT22;14319;49.422;10.934;2023-12-04T08:05:55;-2.90;75.80
26707;DHT22;14319;49.422;10.934;2023-12-04T08:07:56;-2.90;76.30
26707;DHT22;14319;49.422;10.934;2023-12-04T08:09:56;-2.80;76.00
26707;DHT22;14319;49.422;10.934;2023-12-04T08:11:57;-2.90;75.70
26707;DHT22;14319;49.422;10.934;2023-12-04T08:13:58;-2.80;76.40
26707;DHT22;14319;49.422;10.934;2023-12-04T08:15:58;-2.80;77.10
26707;DHT22;14319;49.422;10.934;2023-12-04T08:17:59;-2.80;77.20
26707;DHT22;14319;49.422;10.934;2023-12-04T08:20:00;-2.70;76.50
26707;DHT22;14319;49.422;10.934;2023-12-04T08:22:01;-2.70;75.60
26707;DHT22;14319;49.422;10.934;2023-12-04T08:24:01;-2.60;75.10
26707;DHT22;14319;49.422;10.934;2023-12-04T08:26:02;-2.70;75.80
26707;DHT22;14319;49.422;10.934;2023-12-04T08:28:03;-2.60;75.90
26707;DHT22;14319;49.422;10.934;2023-12-04T08:30:04;-2.50;76.20
26707;DHT22;14319;49.422;10.934;2023-12-04T08:32:05;-2.50;75.60
26707;DHT22;14319;49.422;10.934;2023-12-04T08:34:06;-2.50;76.20
26707;DHT22;14319;49.422;10.934;2023-12-04T08:36:07;-2.40;75.70
26707;DHT22;14319;49.422;10.934;2023-12-04T08:38:08;-2.40;75.40
26707;DHT22;14319;49.422;10.934;2023-12-04T08:40:08;-2.40;75.60
26707;DHT22;14319;49.422;10.934;2023-12-04T08:42:09;-2.40;76.30
26707;DHT22;14319;49.422;10.934;2023-12-04T08:44:10;-2.30;76.20
26707;DHT22;14319;49.422;10.934;2023-12-04T08:46:13;-2.30;75.20
26707;DHT22;14319;49.422;10.934;2023-12-04T08:48:14;-2.20;75.30
26707;DHT22;14319;49.422;10.934;2023-12-04T08:50:14;-2.20;75.90
26707;DHT22;14319;49.422;10.934;2023-12-04T08:52:15;-2.20;75.40
26707;DHT22;14319;49.422;10.934;2023-12-04T08:54:15;-2.10;75.50
26707;DHT22;14319;49.422;10.934;2023-12-04T08:56:16;-2.10;75.30
26707;DHT22;14319;49.422;10.934;2023-12-04T08:58:17;-2.10;75.70
26707;DHT22;14319;49.422;10.934;2023-12-04T09:00:18;-2.00;76.00
26707;DHT22;14319;49.422;10.934;2023-12-04T09:02:19;-2.00;76.20
26707;DHT22;14319;49.422;10.934;2023-12-04T09:04:20;-1.90;76.30
26707;DHT22;14319;49.422;10.934;2023-12-04T09:06:20;-1.90;75.80
26707;DHT22;14319;49.422;10.934;2023-12-04T09:08:23;-1.90;76.10
26707;DHT22;14319;49.422;10.934;2023-12-04T09:10:23;-1.90;75.90
26707;DHT22;14319;49.422;10.934;2023-12-04T09:12:24;-1.80;75.80
26707;DHT22;14319;49.422;10.934;2023-12-04T09:14:25;-1.80;75.30
26707;DHT22;14319;49.422;10.934;2023-12-04T09:16:28;-1.80;75.30
26707;DHT22;14319;49.422;10.934;2023-12-04T09:18:28;-1.80;75.40
26707;DHT22;14319;49.422;10.934;2023-12-04T09:20:29;-1.80;76.50
26707;DHT22;14319;49.422;10.934;2023-12-04T09:22:29;-1.70;76.30
26707;DHT22;14319;49.422;10.934;2023-12-04T09:24:30;-1.70;76.60
26707;DHT22;14319;49.422;10.934;2023-12-04T09:26:31;-1.70;76.20
26707;DHT22;14319;49.422;10.934;2023-12-04T09:28:32;-1.60;75.70
26707;DHT22;14319;49.422;10.934;2023-12-04T09:30:34;-1.60;75.70
26707;DHT22;14319;49.422;10.934;2023-12-04T09:32:36;-1.50;75.80
26707;DHT22;14319;49.422;10.934;2023-12-04T09:34:36;-1.30;76.40
26707;DHT22;14319;49.422;10.934;2023-12-04T09:36:37;-1.50;76.30
26707;DHT22;14319;49.422;10.934;2023-12-04T09:38:38;-1.50;75.90
26707;DHT22;14319;49.422;10.934;2023-12-04T09:40:39;-1.50;76.80
26707;DHT22;14319;49.422;10.934;2023-12-04T09:42:39;-1.50;76.50
26707;DHT22;14319;49.422;10.934;2023-12-04T09:44:40;-1.50;77.20
26707;DHT22;14319;49.422;10.934;2023-12-04T09:46:42;-1.60;76.50
26707;DHT22;14319;49.422;10.934;2023-12-04T09:48:43;-1.50;76.20
26707;DHT22;14319;49.422;10.934;2023-12-04T09:50:47;-1.60;76.40
26707;DHT22;14319;49.422;10.934;2023-12-04T09:52:49;-1.50;76.80
26707;DHT22;14319;49.422;10.934;2023-12-04T09:54:50;-1.50;78.50
26707;DHT22;14319;49.422;10.934;2023-12-04T09:56:51;-1.50;78.20
26707;DHT22;14319;49.422;10.934;2023-12-04T09:58:59;-1.50;77.80
26707;DHT22;14319;49.422;10.934;2023-12-04T10:01:01;-1.50;77.40
26707;DHT22;14319;49.422;10.934;2023-12-04T10:03:01;-1.30;76.70
26707;DHT22;14319;49.422;10.934;2023-12-04T10:05:02;-1.30;76.00
26707;DHT22;14319;49.422;10.934;2023-12-04T10:07:06;-1.40;76.20
26707;DHT22;14319;49.422;10.934;2023-12-04T10:09:06;-1.40;77.60
26707;DHT22;14319;49.422;10.934;2023-12-04T10:11:14;-1.40;77.50
26707;DHT22;14319;49.422;10.934;2023-12-04T10:13:15;-1.20;77.80
26707;DHT22;14319;49.422;10.934;2023-12-04T10:15:15;-1.20;78.00
26707;DHT22;14319;49.422;10.934;2023-12-04T10:17:16;-1.10;77.90
26707;DHT22;14319;49.422;10.934;2023-12-04T10:19:23;-1.10;76.60
26707;DHT22;14319;49.422;10.934;2023-12-04T10:21:32;-1.00;77.00
26707;DHT22;14319;49.422;10.934;2023-12-04T10:23:41;-1.00;76.80
26707;DHT22;14319;49.422;10.934;2023-12-04T10:25:41;-1.00;77.40
26707;DHT22;14319;49.422;10.934;2023-12-04T10:27:42;-0.80;76.80
26707;DHT22;14319;49.422;10.934;2023-12-04T10:29:45;-0.80;76.10
26707;DHT22;14319;49.422;10.934;2023-12-04T10:31:50;-0.80;76.40
26707;DHT22;14319;49.422;10.934;2023-12-04T10:33:51;-0.80;76.30
26707;DHT22;14319;49.422;10.934;2023-12-04T10:35:51;-0.80;76.20
26707;DHT22;14319;49.422;10.934;2023-12-04T10:37:55;-0.70;76.10
26707;DHT22;14319;49.422;10.934;2023-12-04T10:39:56;-0.70;76.50
26707;DHT22;14319;49.422;10.934;2023-12-04T10:42:02;-0.70;77.30
26707;DHT22;14319;49.422;10.934;2023-12-04T10:44:03;-0.90;76.10
26707;DHT22;14319;49.422;10.934;2023-12-04T10:46:04;-0.80;76.30
26707;DHT22;14319;49.422;10.934;2023-12-04T10:48:06;-0.80;76.50
26707;DHT22;14319;49.422;10.934;2023-12-04T10:50:07;-1.00;77.10
26707;DHT22;14319;49.422;10.934;2023-12-04T10:52:08;-1.10;78.60
26707;DHT22;14319;49.422;10.934;2023-12-04T10:54:09;-1.00;78.40
26707;DHT22;14319;49.422;10.934;2023-12-04T10:56:25;-0.90;78.40
26707;DHT22;14319;49.422;10.934;2023-12-04T10:58:28;-0.90;78.40
26707;DHT22;14319;49.422;10.934;2023-12-04T11:00:32;-1.00;76.70
26707;DHT22;14319;49.422;10.934;2023-12-04T11:02:34;-0.80;78.10
26707;DHT22;14319;49.422;10.934;2023-12-04T11:04:36;-0.70;77.60
26707;DHT22;14319;49.422;10.934;2023-12-04T11:06:39;-0.70;76.80
26707;DHT22;14319;49.422;10.934;2023-12-04T11:08:42;-0.60;77.70
26707;DHT22;14319;49.422;10.934;2023-12-04T11:10:55;-0.60;76.90
26707;DHT22;14319;49.422;10.934;2023-12-04T11:13:12;-0.60;76.80
26707;DHT22;14319;49.422;10.934;2023-12-04T11:15:16;-0.70;77.80
26707;DHT22;14319;49.422;10.934;2023-12-04T11:17:19;-0.70;76.50
26707;DHT22;14319;49.422;10.934;2023-12-04T11:19:39;-0.80;76.70
26707;DHT22;14319;49.422;10.934;2023-12-04T11:21:43;-0.80;77.90
26707;DHT22;14319;49.422;10.934;2023-12-04T11:23:46;-0.70;78.40
26707;DHT22;14319;49.422;10.934;2023-12-04T11:25:47;-0.60;77.70
26707;DHT22;14319;49.422;10.934;2023-12-04T11:27:48;-0.50;76.70
26707;DHT22;14319;49.422;10.934;2023-12-04T11:29:49;-0.50;76.60
26707;DHT22;14319;49.422;10.934;2023-12-04T11:31:51;-0.50;78.40
26707;DHT22;14319;49.422;10.934;2023-12-04T11:33:51;-0.40;79.20
26707;DHT22;14319;49.422;10.934;2023-12-04T11:35:52;-0.30;77.60
26707;DHT22;14319;49.422;10.934;2023-12-04T11:37:53;-0.30;77.90
26707;DHT22;14319;49.422;10.934;2023-12-04T11:39:53;-0.20;78.70
26707;DHT22;14319;49.422;10.934;2023-12-04T11:41:54;-0.40;77.60
26707;DHT22;14319;49.422;10.934;2023-12-04T11:43:56;-0.40;77.20
26707;DHT22;14319;49.422;10.934;2023-12-04T11:46:09;-0.40;77.70
26707;DHT22;14319;49.422;10.934;2023-12-04T11:48:10;-0.30;77.50
26707;DHT22;14319;49.422;10.934;2023-12-04T11:50:10;-0.30;77.70
26707;DHT22;14319;49.422;10.934;2023-12-04T11:52:12;-0.40;78.10
26707;DHT22;14319;49.422;10.934;2023-12-04T11:54:18;-0.20;77.30
26707;DHT22;14319;49.422;10.934;2023-12-04T11:56:19;-0.40;77.00
26707;DHT22;14319;49.422;10.934;2023-12-04T11:58:21;-0.50;76.80
26707;DHT22;14319;49.422;10.934;2023-12-04T12:00:22;-0.50;76.50
26707;DHT22;14319;49.422;10.934;2023-12-04T12:02:24;-0.70;76.60
26707;DHT22;14319;49.422;10.934;2023-12-04T12:04:25;-0.60;78.40
26707;DHT22;14319;49.422;10.934;2023-12-04T12:06:27;-0.50;78.30
26707;DHT22;14319;49.422;10.934;2023-12-04T12:08:28;-0.60;78.30
26707;DHT22;14319;49.422;10.934;2023-12-04T12:10:29;-0.80;77.70
26707;DHT22;14319;49.422;10.934;2023-12-04T12:12:30;-0.60;77.80
26707;DHT22;14319;49.422;10.934;2023-12-04T12:14:32;-0.50;79.20
26707;DHT22;14319;49.422;10.934;2023-12-04T12:16:33;-0.50;78.10
26707;DHT22;14319;49.422;10.934;2023-12-04T12:18:36;-0.50;77.40
26707;DHT22;14319;49.422;10.934;2023-12-04T12:20:37;-0.50;79.70
26707;DHT22;14319;49.422;10.934;2023-12-04T12:22:38;-0.40;77.40
26707;DHT22;14319;49.422;10.934;2023-12-04T12:24:44;-0.60;76.80
26707;DHT22;14319;49.422;10.934;2023-12-04T12:26:47;-0.70;78.60
26707;DHT22;14319;49.422;10.934;2023-12-04T12:28:47;-0.40;78.50
26707;DHT22;14319;49.422;10.934;2023-12-04T12:30:49;-0.40;79.30
26707;DHT22;14319;49.422;10.934;2023-12-04T12:32:50;-0.20;76.50